METAR Data
IDs: Format: Raw Decoded Include TAF

Data at: 2248 UTC 01 Mar 2021

METAR for:KVUJ (Albemarle/Stanly Cnt, NC, US)
Text:KVUJ 012235Z AUTO 33003KT 10SM SCT036 SCT046 OVC050 14/08 A3006 RMK AO2 T01410076
Temperature: 14.1°C ( 57°F)
Dewpoint: 7.6°C ( 46°F) [RH = 65%]
Pressure (altimeter):30.06 inches Hg (1018.0 mb)
Winds:from the NNW (330 degrees) at 3 MPH (3 knots; 1.5 m/s)
Visibility:10 or more sm (16+ km)
Ceiling:5000 feet AGL
Clouds: scattered clouds at 3600 feet AGL, scattered clouds at 4600 feet AGL, overcast cloud deck at 5000 feet AGL
QC Flag:automated observation with no human augmentation